createdAt,value
2022-10-09T09:23:16.821Z,45.19
2022-10-09T09:25:46.603Z,45.03
2022-10-09T09:28:34.798Z,45.12
2022-10-09T09:31:09.577Z,45.44
2022-10-09T09:34:11.075Z,45.05
2022-10-09T09:36:46.875Z,45.11
2022-10-09T09:42:09.934Z,45.39
2022-10-09T09:44:42.752Z,44.67
2022-10-09T09:47:20.984Z,45.06
2022-10-09T09:50:01.203Z,44.84
2022-10-09T09:52:35.293Z,45.57
2022-10-09T09:55:04.523Z,45.44
2022-10-09T09:57:42.252Z,45.81
2022-10-09T10:00:21.313Z,45.91
2022-10-09T10:02:50.770Z,45.64
2022-10-09T10:05:26.462Z,45.49
2022-10-09T10:07:57.762Z,45.61
2022-10-09T10:10:27.493Z,46.02
2022-10-09T10:12:59.410Z,46.29
2022-10-09T10:15:29.874Z,45.93
2022-10-09T10:18:12.999Z,45.83
2022-10-09T10:21:05.464Z,46.25
2022-10-09T10:23:41.621Z,46.12
2022-10-09T10:26:12.959Z,46.09
2022-10-09T10:28:52.674Z,46.16
2022-10-09T10:31:42.330Z,45.93
2022-10-09T10:34:25.853Z,46.26
2022-10-09T10:37:03.394Z,46.18
2022-10-09T10:40:14.703Z,45.84
2022-10-09T10:43:00.285Z,45.85
2022-10-09T10:45:34.514Z,46.60
2022-10-09T10:48:04.423Z,46.03
2022-10-09T10:50:39.031Z,45.91
2022-10-09T10:53:18.608Z,45.84
2022-10-09T10:56:02.761Z,45.73
2022-10-09T10:58:36.548Z,46.16
2022-10-09T11:01:24.991Z,46.24
2022-10-09T11:03:58.997Z,46.49
2022-10-09T11:06:47.258Z,46.53
2022-10-09T11:09:40.139Z,46.90
2022-10-09T11:12:47.348Z,46.78
2022-10-09T11:15:40.951Z,46.63
2022-10-09T11:18:24.626Z,46.65
2022-10-09T11:21:04.279Z,46.63
2022-10-09T11:23:54.440Z,46.84
2022-10-09T11:26:42.901Z,46.75
2022-10-09T11:29:18.289Z,46.48
2022-10-09T11:31:57.644Z,46.63
2022-10-09T11:34:34.497Z,46.35
2022-10-09T11:37:07.842Z,46.37
2022-10-09T11:39:37.754Z,46.27
2022-10-09T11:42:06.604Z,46.40
2022-10-09T11:44:45.622Z,46.19
2022-10-09T11:47:45.925Z,46.14
2022-10-09T11:50:17.309Z,45.73
2022-10-09T11:53:06.487Z,45.62
2022-10-09T11:55:35.206Z,45.54
2022-10-09T11:58:15.234Z,44.71
2022-10-09T12:00:44.508Z,44.95
2022-10-09T12:03:35.984Z,44.71
2022-10-09T12:06:13.176Z,44.49
2022-10-09T12:09:08.065Z,44.63
2022-10-09T12:11:36.625Z,44.61
2022-10-09T12:14:09.196Z,44.84
2022-10-09T12:16:43.644Z,44.76
2022-10-09T12:19:23.888Z,45.12
2022-10-09T12:22:21.168Z,44.97
2022-10-09T12:24:56.678Z,45.06
2022-10-09T12:27:32.809Z,45.04
2022-10-09T12:30:13.483Z,44.79
2022-10-09T12:32:55.067Z,44.31
2022-10-09T12:35:25.800Z,44.43
2022-10-09T12:37:54.253Z,44.32
2022-10-09T12:40:25.589Z,44.45
2022-10-09T12:42:55.713Z,44.58
2022-10-09T12:45:30.521Z,44.52
2022-10-09T12:48:00.791Z,43.89
2022-10-09T12:50:34.859Z,43.87
2022-10-09T12:53:05.648Z,43.81
2022-10-09T12:55:36.708Z,43.51
2022-10-09T12:58:21.859Z,43.38
2022-10-09T13:00:59.604Z,43.36
2022-10-09T13:03:37.333Z,43.23
2022-10-09T13:06:17.911Z,43.10
2022-10-09T13:08:46.787Z,42.95
2022-10-09T13:11:17.771Z,43.13
2022-10-09T13:13:50.399Z,42.61
2022-10-09T13:16:18.969Z,43.01
2022-10-09T13:19:04.656Z,42.79
2022-10-09T13:21:35.290Z,42.58
2022-10-09T13:24:08.728Z,42.27
2022-10-09T13:26:39.681Z,42.23
2022-10-09T13:29:09.079Z,42.28
2022-10-09T13:31:38.461Z,42.42
2022-10-09T13:34:14.428Z,42.32
2022-10-09T13:36:42.614Z,42.11
2022-10-09T13:39:14.898Z,42.23
2022-10-09T13:41:44.230Z,42.47
2022-10-09T13:44:12.628Z,42.59
2022-10-09T13:46:40.738Z,42.38
2022-10-09T13:49:09.108Z,42.03
2022-10-09T13:51:37.597Z,42.13
2022-10-09T13:54:05.859Z,42.11
2022-10-09T13:56:34.098Z,42.02
2022-10-09T13:59:02.539Z,42.03
2022-10-09T14:01:30.852Z,42.10
2022-10-09T14:03:59.128Z,42.49
2022-10-09T14:06:27.589Z,42.24
2022-10-09T14:08:57.778Z,42.45
2022-10-09T14:11:25.988Z,42.42
2022-10-09T14:13:54.387Z,42.54
2022-10-09T14:16:23.227Z,42.81
2022-10-09T14:18:52.358Z,42.90
2022-10-09T14:21:20.801Z,42.88
2022-10-09T14:23:52.167Z,42.41
2022-10-09T14:26:21.068Z,42.51
2022-10-09T14:28:49.579Z,42.71
2022-10-09T14:31:18.050Z,42.80
2022-10-09T14:33:47.697Z,42.99
2022-10-09T14:36:19.247Z,42.81
2022-10-09T14:38:48.691Z,43.02
2022-10-09T14:41:20.714Z,43.06
2022-10-09T14:43:56.377Z,42.92
2022-10-09T14:46:26.619Z,43.37
2022-10-09T14:48:56.417Z,43.29
2022-10-09T14:51:27.087Z,42.95
2022-10-09T14:53:58.667Z,42.96
2022-10-09T14:56:27.857Z,43.13
2022-10-09T14:59:00.459Z,43.18
2022-10-09T15:01:29.967Z,43.33
2022-10-09T15:04:00.773Z,43.51
2022-10-09T15:06:29.298Z,43.43
2022-10-09T15:09:05.509Z,43.33
2022-10-09T15:11:35.787Z,43.15
2022-10-09T15:14:04.900Z,43.05
2022-10-09T15:16:33.202Z,43.05
2022-10-09T15:19:02.148Z,43.04
2022-10-09T15:21:32.477Z,43.14
2022-10-09T15:24:02.583Z,43.31
2022-10-09T15:26:33.150Z,42.97
2022-10-09T15:29:06.342Z,43.17
2022-10-09T15:31:37.960Z,42.76
2022-10-09T15:34:07.870Z,43.51
2022-10-09T15:36:38.363Z,43.43
2022-10-09T15:39:08.415Z,43.58
2022-10-09T15:41:38.688Z,43.16
2022-10-09T15:44:15.505Z,43.27
2022-10-09T15:46:44.737Z,43.70
2022-10-09T15:49:13.707Z,44.12
2022-10-09T15:51:42.277Z,44.01
2022-10-09T15:54:12.436Z,44.10
2022-10-09T15:56:42.735Z,44.21
2022-10-09T15:59:12.959Z,44.14
2022-10-09T16:01:41.299Z,44.39
2022-10-09T16:04:09.996Z,44.17
2022-10-09T16:06:38.773Z,43.94
2022-10-09T16:09:07.386Z,43.85
2022-10-09T16:11:36.015Z,44.01
2022-10-09T16:14:04.954Z,43.57
2022-10-09T16:16:33.318Z,44.04
2022-10-09T16:19:04.121Z,44.15
2022-10-09T16:21:32.740Z,43.91
2022-10-09T16:24:01.278Z,44.10
2022-10-09T16:26:30.645Z,43.81
2022-10-09T16:29:00.353Z,44.15
2022-10-09T16:31:31.320Z,44.22
2022-10-09T16:34:00.333Z,44.50
2022-10-09T16:36:29.298Z,44.23
2022-10-09T16:38:58.664Z,44.35
2022-10-09T16:41:27.397Z,44.34
2022-10-09T16:43:57.739Z,44.60
2022-10-09T16:49:02.225Z,44.76
2022-10-09T16:51:38.478Z,45.00
2022-10-09T16:54:07.505Z,45.18
2022-10-09T16:56:38.778Z,45.24
2022-10-09T16:59:12.619Z,45.25
2022-10-09T17:01:45.427Z,45.69
2022-10-09T17:04:15.288Z,45.68
2022-10-09T17:06:45.037Z,45.70
2022-10-09T17:09:14.553Z,45.70
2022-10-09T17:11:43.801Z,45.48
2022-10-09T17:14:13.140Z,45.31
2022-10-09T17:16:42.672Z,45.40
2022-10-09T17:19:12.080Z,45.39
2022-10-09T17:21:41.668Z,46.03
2022-10-09T17:24:14.810Z,46.13
2022-10-09T17:26:43.545Z,46.01
2022-10-09T17:29:13.932Z,45.77
2022-10-09T17:31:42.589Z,46.27
2022-10-09T17:34:12.028Z,46.64
2022-10-09T17:36:42.041Z,46.40
2022-10-09T17:39:16.906Z,46.55
2022-10-09T17:41:46.676Z,46.58
2022-10-09T17:44:16.022Z,46.69
2022-10-09T17:46:44.471Z,46.67
2022-10-09T17:49:13.191Z,46.84
2022-10-09T17:51:41.517Z,46.71
2022-10-09T17:54:15.846Z,46.60
2022-10-09T17:56:45.589Z,46.41
2022-10-09T17:59:16.381Z,46.70
2022-10-09T18:01:50.127Z,46.77
2022-10-09T18:04:23.004Z,46.72
2022-10-09T18:06:54.023Z,46.55
2022-10-09T18:09:27.462Z,46.73
2022-10-09T18:11:59.947Z,46.52
2022-10-09T18:14:28.410Z,46.46
2022-10-09T18:16:56.700Z,46.66
2022-10-09T18:19:25.290Z,46.62
2022-10-09T18:21:53.727Z,46.91
2022-10-09T18:24:22.261Z,46.95
2022-10-09T18:26:51.553Z,46.90
2022-10-09T18:29:19.819Z,47.13
2022-10-09T18:31:50.511Z,46.83
2022-10-09T18:34:19.224Z,46.82
2022-10-09T18:36:47.788Z,46.90
2022-10-09T18:39:16.075Z,46.67
2022-10-09T18:41:45.121Z,46.73
2022-10-09T18:44:17.861Z,46.83
2022-10-09T18:49:24.220Z,46.86
2022-10-09T18:51:52.635Z,46.86
2022-10-09T18:54:22.596Z,46.74
2022-10-09T18:56:51.485Z,47.04
2022-10-09T18:59:23.319Z,46.95
2022-10-09T19:01:51.596Z,46.91
2022-10-09T19:04:20.094Z,46.89
2022-10-09T19:06:48.417Z,46.69
2022-10-09T19:09:17.232Z,47.08
2022-10-09T19:11:46.059Z,46.71
2022-10-09T19:14:16.011Z,46.50
2022-10-09T19:16:44.171Z,46.60
2022-10-09T19:19:13.643Z,46.88
2022-10-09T19:24:48.766Z,47.01
2022-10-09T19:27:17.642Z,46.68
2022-10-09T19:29:49.290Z,46.86
2022-10-09T19:32:22.950Z,46.98
2022-10-09T19:34:53.248Z,46.78
2022-10-09T19:37:26.125Z,46.70
2022-10-09T19:39:58.648Z,46.80
2022-10-09T19:42:28.097Z,46.77
2022-10-09T19:44:56.645Z,46.96
2022-10-09T19:47:25.891Z,46.94
2022-10-09T19:50:00.977Z,46.78
2022-10-09T19:52:29.922Z,47.15
2022-10-09T19:54:58.492Z,46.90
2022-10-09T19:57:28.211Z,46.63
2022-10-09T19:59:57.422Z,46.85
2022-10-09T20:02:25.761Z,46.83
2022-10-09T20:07:24.080Z,46.94
2022-10-09T20:09:53.600Z,47.10
2022-10-09T20:12:22.198Z,46.97
2022-10-09T20:14:51.280Z,47.16
2022-10-09T20:17:21.940Z,47.07
2022-10-09T20:19:50.450Z,47.05
2022-10-09T20:22:18.991Z,47.22
2022-10-09T20:24:47.420Z,47.13
2022-10-09T20:27:15.691Z,46.82
2022-10-09T20:29:44.452Z,47.00
2022-10-09T20:32:12.734Z,47.09
2022-10-09T20:34:41.239Z,46.82
2022-10-09T20:37:09.500Z,46.80
2022-10-09T20:39:37.942Z,46.74
2022-10-09T20:42:06.322Z,46.76
2022-10-09T20:44:34.793Z,46.71
2022-10-09T20:47:03.062Z,46.35
2022-10-09T20:49:31.501Z,46.38
2022-10-09T20:52:00.072Z,46.19
2022-10-09T20:54:30.572Z,45.99
2022-10-09T20:56:58.563Z,45.85
2022-10-09T20:59:27.016Z,45.87
2022-10-09T21:01:55.108Z,45.94
2022-10-09T21:04:23.726Z,45.64
2022-10-09T21:06:51.895Z,45.21
2022-10-09T21:09:20.318Z,45.01
2022-10-09T21:11:48.595Z,45.28
2022-10-09T21:14:17.575Z,44.90
2022-10-09T21:16:45.705Z,44.96
2022-10-09T21:19:14.097Z,44.72
2022-10-09T21:21:42.326Z,44.82
2022-10-09T21:24:10.690Z,44.76
2022-10-09T21:26:39.766Z,44.53
2022-10-09T21:29:08.415Z,44.68
2022-10-09T21:31:36.637Z,44.03
2022-10-09T21:34:05.157Z,44.39
2022-10-09T21:36:56.256Z,44.33
2022-10-09T21:39:30.706Z,44.07
2022-10-09T21:41:59.464Z,44.45
2022-10-09T21:44:27.944Z,44.28
2022-10-09T21:46:56.044Z,44.10
2022-10-09T21:49:27.525Z,44.04
2022-10-09T21:51:56.336Z,44.11
2022-10-09T21:54:24.918Z,43.85
2022-10-09T21:56:53.181Z,44.09
2022-10-09T21:59:21.399Z,43.96
2022-10-09T22:01:49.904Z,43.85
2022-10-09T22:04:20.459Z,44.16
2022-10-09T22:06:48.638Z,43.93
2022-10-09T22:09:17.117Z,44.00
2022-10-09T22:11:45.345Z,43.63
2022-10-09T22:14:13.804Z,43.45
2022-10-09T22:16:42.285Z,44.03
2022-10-09T22:19:10.525Z,43.81
2022-10-09T22:21:38.862Z,43.58
2022-10-09T22:24:07.007Z,43.74
2022-10-09T22:26:36.255Z,43.38
2022-10-09T22:29:04.376Z,43.88
2022-10-09T22:31:32.876Z,44.01
2022-10-09T22:34:02.098Z,43.77
2022-10-09T22:36:33.149Z,43.65
2022-10-09T22:39:04.081Z,43.62
2022-10-09T22:41:34.498Z,43.69
2022-10-09T22:44:04.633Z,43.75
2022-10-09T22:46:38.667Z,43.71
2022-10-09T22:49:08.721Z,43.44
2022-10-09T22:51:37.121Z,43.67
2022-10-09T22:54:05.698Z,43.40
2022-10-09T22:56:39.891Z,43.57
2022-10-09T22:59:09.317Z,43.44
2022-10-09T23:01:42.874Z,43.49
2022-10-09T23:04:14.036Z,43.58
2022-10-09T23:06:43.256Z,43.17
2022-10-09T23:09:14.106Z,43.10
2022-10-09T23:11:42.917Z,43.21
2022-10-09T23:14:12.361Z,43.24
2022-10-09T23:16:40.956Z,43.33
2022-10-09T23:19:09.379Z,42.89
2022-10-09T23:21:39.970Z,42.72
2022-10-09T23:24:09.656Z,42.58
2022-10-09T23:26:38.750Z,42.90
2022-10-09T23:29:15.607Z,43.20
2022-10-09T23:31:44.523Z,42.69
2022-10-09T23:34:13.216Z,42.66
2022-10-09T23:36:41.706Z,42.76
2022-10-09T23:39:14.357Z,42.96
2022-10-09T23:41:42.946Z,42.65
2022-10-09T23:44:11.183Z,42.50
2022-10-09T23:46:40.277Z,42.57
2022-10-09T23:49:08.479Z,42.64
2022-10-09T23:51:38.205Z,42.55
2022-10-09T23:54:07.321Z,42.63
2022-10-09T23:56:36.640Z,42.80
2022-10-09T23:59:08.986Z,42.65
